createdAt,value
2023-05-15T00:01:02.535Z,4.57
2023-05-15T00:04:08.035Z,4.88
2023-05-15T00:07:13.175Z,4.80
2023-05-15T00:10:18.307Z,4.35
2023-05-15T00:13:24.947Z,4.70
2023-05-15T00:16:30.061Z,4.43
2023-05-15T00:19:35.349Z,5.00
2023-05-15T00:22:40.648Z,4.90
2023-05-15T00:25:45.725Z,5.75
2023-05-15T00:28:52.652Z,5.50
2023-05-15T00:31:57.967Z,6.78
2023-05-15T00:35:04.210Z,6.10
2023-05-15T00:38:09.341Z,6.18
2023-05-15T00:41:15.499Z,5.00
2023-05-15T00:44:22.349Z,5.20
2023-05-15T00:47:28.876Z,4.90
2023-05-15T00:50:35.011Z,4.63
2023-05-15T00:53:40.147Z,4.70
2023-05-15T00:56:46.439Z,5.38
2023-05-15T00:59:55.113Z,4.80
2023-05-15T01:03:00.867Z,4.85
2023-05-15T01:06:06.783Z,5.40
2023-05-15T01:09:16.689Z,6.50
2023-05-15T01:12:23.583Z,6.05
2023-05-15T01:15:30.324Z,6.60
2023-05-15T01:18:35.504Z,5.95
2023-05-15T01:22:12.384Z,6.85
2023-05-15T01:25:56.023Z,5.20
2023-05-15T01:29:06.471Z,5.00
2023-05-15T01:32:19.132Z,5.40
2023-05-15T01:35:30.482Z,5.25
2023-05-15T01:38:40.235Z,5.07
2023-05-15T01:41:50.181Z,5.05
2023-05-15T01:44:57.554Z,5.47
2023-05-15T01:48:03.245Z,4.72
2023-05-15T01:51:10.035Z,5.10
2023-05-15T01:54:15.872Z,4.82
2023-05-15T01:57:22.049Z,5.35
2023-05-15T02:00:28.615Z,5.40
2023-05-15T02:03:35.105Z,5.68
2023-05-15T02:06:40.489Z,6.03
2023-05-15T02:09:47.726Z,5.00
2023-05-15T02:12:54.115Z,5.32
2023-05-15T02:16:01.782Z,5.57
2023-05-15T02:19:07.003Z,5.53
2023-05-15T02:22:12.855Z,5.30
2023-05-15T02:25:19.316Z,5.47
2023-05-15T02:28:40.424Z,5.28
2023-05-15T02:31:52.977Z,5.80
2023-05-15T02:35:03.700Z,5.30
2023-05-15T02:38:13.419Z,5.40
2023-05-15T02:41:18.915Z,5.63
2023-05-15T02:44:24.250Z,5.70
2023-05-15T02:47:32.629Z,5.75
2023-05-15T02:50:38.505Z,5.88
2023-05-15T02:53:44.304Z,6.60
2023-05-15T02:56:49.417Z,5.97
2023-05-15T02:59:56.391Z,5.63
2023-05-15T03:03:02.949Z,5.65
2023-05-15T03:06:08.520Z,5.53
2023-05-15T03:09:13.762Z,6.00
2023-05-15T03:12:19.286Z,6.18
2023-05-15T03:15:24.708Z,5.72
2023-05-15T03:18:31.379Z,6.00
2023-05-15T03:21:36.590Z,5.60
2023-05-15T03:24:42.044Z,5.55
2023-05-15T03:27:47.216Z,6.45
2023-05-15T03:30:52.966Z,7.20
2023-05-15T03:33:59.457Z,6.13
2023-05-15T03:37:04.588Z,7.22
2023-05-15T03:40:10.972Z,6.53
2023-05-15T03:43:16.394Z,5.97
2023-05-15T03:46:22.578Z,5.85
2023-05-15T03:49:29.182Z,6.10
2023-05-15T03:52:34.310Z,5.70
2023-05-15T03:55:39.433Z,5.63
2023-05-15T03:58:45.025Z,6.13
2023-05-15T04:02:03.601Z,5.78
2023-05-15T04:05:12.916Z,5.65
2023-05-15T04:08:18.334Z,5.80
2023-05-15T04:11:23.921Z,6.07
2023-05-15T04:14:29.576Z,5.68
2023-05-15T04:17:34.663Z,5.40
2023-05-15T04:20:41.109Z,4.93
2023-05-15T04:23:46.201Z,6.00
2023-05-15T04:26:51.460Z,6.05
2023-05-15T04:29:56.633Z,6.00
2023-05-15T04:33:01.739Z,6.03
2023-05-15T04:36:09.512Z,5.80
2023-05-15T04:39:14.788Z,5.43
2023-05-15T04:42:19.970Z,5.35
2023-05-15T04:45:25.933Z,6.00
2023-05-15T04:48:31.140Z,5.50
2023-05-15T04:51:38.105Z,5.03
2023-05-15T04:54:43.415Z,5.55
2023-05-15T04:57:49.161Z,5.50
2023-05-15T05:00:54.232Z,5.40
2023-05-15T05:04:00.067Z,4.63
2023-05-15T05:07:06.808Z,4.57
2023-05-15T05:10:13.256Z,4.65
2023-05-15T05:13:18.448Z,5.10
2023-05-15T05:16:23.602Z,4.80
2023-05-15T05:19:29.253Z,5.43
2023-05-15T05:22:35.748Z,5.50
2023-05-15T05:25:40.828Z,4.93
2023-05-15T05:28:45.956Z,4.30
2023-05-15T05:31:51.394Z,5.15
2023-05-15T05:34:56.662Z,5.28
2023-05-15T05:38:08.245Z,5.10
2023-05-15T05:41:15.153Z,4.60
2023-05-15T05:44:20.261Z,4.68
2023-05-15T05:47:25.367Z,5.25
2023-05-15T05:50:30.610Z,4.65
2023-05-15T05:53:37.676Z,4.10
2023-05-15T05:56:45.094Z,4.45
2023-05-15T05:59:50.134Z,4.72
2023-05-15T06:02:58.884Z,4.60
2023-05-15T06:06:04.429Z,4.40
2023-05-15T06:09:12.834Z,4.93
2023-05-15T06:12:19.964Z,4.70
2023-05-15T06:15:26.499Z,4.55
2023-05-15T06:18:31.651Z,4.00
2023-05-15T06:21:36.623Z,4.50
2023-05-15T06:24:43.429Z,4.90
2023-05-15T06:27:48.688Z,4.45
2023-05-15T06:30:54.311Z,4.57
2023-05-15T06:33:59.378Z,4.95
2023-05-15T06:37:04.530Z,4.15
2023-05-15T06:40:12.070Z,3.97
2023-05-15T06:43:17.517Z,4.10
2023-05-15T06:46:22.911Z,4.68
2023-05-15T06:49:28.401Z,4.35
2023-05-15T06:52:33.374Z,4.70
2023-05-15T06:55:39.876Z,4.90
2023-05-15T06:58:44.979Z,4.10
2023-05-15T07:01:49.973Z,3.88
2023-05-15T07:04:55.046Z,4.32
2023-05-15T07:08:00.625Z,4.30
2023-05-15T07:11:07.248Z,4.10
2023-05-15T07:14:12.310Z,3.60
2023-05-15T07:17:17.680Z,4.07
2023-05-15T07:20:24.292Z,4.20
2023-05-15T07:23:30.281Z,4.05
2023-05-15T07:26:43.884Z,4.72
2023-05-15T07:29:55.572Z,4.00
2023-05-15T07:33:01.035Z,4.13
2023-05-15T07:36:06.803Z,4.00
2023-05-15T07:39:11.897Z,3.90
2023-05-15T07:42:18.329Z,4.40
2023-05-15T07:45:23.954Z,4.07
2023-05-15T07:48:29.354Z,4.00
2023-05-15T07:51:34.054Z,3.25
2023-05-15T07:54:39.626Z,4.40
2023-05-15T08:00:57.946Z,3.83
2023-05-15T08:04:02.993Z,3.05
2023-05-15T08:07:08.899Z,3.35
2023-05-15T08:10:14.208Z,3.88
2023-05-15T08:13:20.605Z,3.08
2023-05-15T08:16:25.764Z,2.80
2023-05-15T08:19:33.604Z,2.95
2023-05-15T08:22:39.110Z,2.80
2023-05-15T08:25:44.115Z,3.05
2023-05-15T08:28:50.468Z,3.63
2023-05-15T08:31:55.452Z,2.83
2023-05-15T08:35:00.532Z,3.20
2023-05-15T08:38:05.549Z,3.15
2023-05-15T08:41:38.642Z,2.95
2023-05-15T08:44:46.514Z,3.40
2023-05-15T08:47:51.729Z,3.00
2023-05-15T08:50:58.550Z,3.28
2023-05-15T08:54:03.751Z,2.95
2023-05-15T08:57:09.275Z,3.15
2023-05-15T09:00:18.265Z,2.80
2023-05-15T09:03:24.441Z,3.30
2023-05-15T09:06:30.275Z,2.90
2023-05-15T09:09:35.748Z,3.13
2023-05-15T09:12:45.202Z,3.63
2023-05-15T09:15:52.362Z,3.22
2023-05-15T09:18:57.536Z,2.83
2023-05-15T09:22:17.823Z,3.03
2023-05-15T09:25:39.653Z,3.50
2023-05-15T09:28:44.787Z,3.08
2023-05-15T09:31:52.094Z,3.05
2023-05-15T09:34:57.311Z,3.00
2023-05-15T09:38:03.171Z,3.22
2023-05-15T09:41:09.325Z,3.13
2023-05-15T09:44:21.938Z,3.28
2023-05-15T09:47:28.855Z,3.45
2023-05-15T09:50:36.474Z,3.55
2023-05-15T09:53:41.890Z,3.10
2023-05-15T09:56:47.306Z,3.22
2023-05-15T09:59:52.374Z,3.42
2023-05-15T10:03:03.434Z,3.63
2023-05-15T10:06:08.697Z,3.15
2023-05-15T10:09:15.273Z,3.55
2023-05-15T10:12:22.844Z,3.00
2023-05-15T10:15:28.370Z,3.30
2023-05-15T10:18:36.003Z,3.13
2023-05-15T10:21:42.683Z,3.22
2023-05-15T10:24:49.280Z,3.25
2023-05-15T10:27:54.857Z,3.00
2023-05-15T10:31:03.436Z,3.13
2023-05-15T10:34:11.991Z,3.47
2023-05-15T10:37:16.938Z,3.25
2023-05-15T10:40:22.707Z,3.25
2023-05-15T10:43:28.479Z,3.38
2023-05-15T10:46:36.695Z,3.40
2023-05-15T10:49:44.337Z,3.33
2023-05-15T10:52:53.211Z,3.28
2023-05-15T10:55:58.314Z,3.40
2023-05-15T10:59:08.228Z,3.60
2023-05-15T11:02:23.585Z,3.20
2023-05-15T11:05:31.242Z,3.00
2023-05-15T11:08:36.363Z,3.30
2023-05-15T11:11:58.016Z,3.42
2023-05-15T11:15:24.745Z,3.42
2023-05-15T11:18:30.009Z,3.30
2023-05-15T11:21:37.304Z,3.15
2023-05-15T11:24:51.369Z,3.47
2023-05-15T11:27:57.351Z,4.00
2023-05-15T11:31:07.246Z,3.35
2023-05-15T11:34:12.603Z,3.00
2023-05-15T11:37:20.733Z,2.97
2023-05-15T11:40:27.207Z,3.30
2023-05-15T11:43:33.604Z,3.20
2023-05-15T11:46:39.277Z,2.90
2023-05-15T11:49:44.746Z,3.03
2023-05-15T11:52:51.880Z,3.28
2023-05-15T11:55:56.958Z,3.00
2023-05-15T11:59:02.596Z,3.42
2023-05-15T12:02:08.168Z,3.25
2023-05-15T12:05:13.598Z,2.92
2023-05-15T12:08:20.492Z,3.13
2023-05-15T12:11:25.950Z,3.53
2023-05-15T12:14:31.663Z,3.25
2023-05-15T12:17:39.161Z,3.20
2023-05-15T12:20:46.637Z,3.22
2023-05-15T12:24:06.533Z,3.35
2023-05-15T12:27:13.636Z,3.05
2023-05-15T12:30:19.224Z,3.50
2023-05-15T12:33:24.858Z,3.08
2023-05-15T12:36:31.049Z,3.15
2023-05-15T12:39:37.430Z,3.53
2023-05-15T12:42:44.949Z,3.95
2023-05-15T12:45:54.435Z,2.80
2023-05-15T12:49:00.308Z,3.03
2023-05-15T12:52:10.496Z,3.15
2023-05-15T12:55:19.613Z,2.95
2023-05-15T12:58:26.238Z,3.20
2023-05-15T13:01:32.100Z,3.70
2023-05-15T13:04:37.495Z,3.00
2023-05-15T13:07:44.116Z,3.10
2023-05-15T13:10:58.378Z,3.17
2023-05-15T13:14:09.646Z,2.92
2023-05-15T13:17:16.799Z,3.40
2023-05-15T13:20:21.861Z,3.00
2023-05-15T13:23:26.858Z,3.13
2023-05-15T13:26:34.478Z,2.88
2023-05-15T13:29:39.447Z,3.30
2023-05-15T13:32:44.776Z,3.20
2023-05-15T13:35:50.179Z,3.35
2023-05-15T13:38:55.212Z,3.15
2023-05-15T13:42:01.948Z,3.20
2023-05-15T13:45:08.110Z,3.38
2023-05-15T13:48:14.331Z,3.08
2023-05-15T13:51:19.278Z,2.92
2023-05-15T13:54:23.957Z,3.30
2023-05-15T13:57:30.613Z,3.33
2023-05-15T14:00:35.692Z,3.28
2023-05-15T14:03:40.833Z,3.28
2023-05-15T14:06:46.143Z,3.35
2023-05-15T14:09:51.230Z,3.20
2023-05-15T14:12:59.399Z,3.55
2023-05-15T14:16:06.139Z,3.33
2023-05-15T14:19:11.615Z,2.92
2023-05-15T14:22:16.655Z,3.03
2023-05-15T14:25:21.691Z,3.10
2023-05-15T14:28:28.111Z,3.45
2023-05-15T14:31:33.062Z,3.22
2023-05-15T14:34:38.161Z,3.45
2023-05-15T14:37:43.495Z,3.10
2023-05-15T14:40:48.529Z,3.25
2023-05-15T14:43:54.707Z,3.17
2023-05-15T14:47:10.355Z,3.17
2023-05-15T14:50:15.488Z,3.42
2023-05-15T14:53:20.501Z,3.00
2023-05-15T14:56:25.954Z,3.05
2023-05-15T14:59:32.540Z,3.00
2023-05-15T15:02:37.753Z,3.13
2023-05-15T15:05:42.871Z,3.10
2023-05-15T15:08:48.038Z,3.60
2023-05-15T15:11:53.185Z,3.00
2023-05-15T15:14:59.777Z,2.70
2023-05-15T15:18:05.005Z,3.70
2023-05-15T15:21:10.361Z,3.55
2023-05-15T15:24:15.382Z,3.53
2023-05-15T15:27:20.324Z,3.22
2023-05-15T15:30:26.877Z,3.50
2023-05-15T15:33:32.036Z,3.05
2023-05-15T15:36:39.388Z,3.30
2023-05-15T15:39:44.560Z,4.32
2023-05-15T15:42:49.597Z,4.05
2023-05-15T15:45:57.116Z,3.25
2023-05-15T15:49:03.877Z,3.35
2023-05-15T15:52:10.217Z,3.40
2023-05-15T15:55:15.213Z,3.17
2023-05-15T15:58:20.806Z,3.17
2023-05-15T16:01:27.407Z,4.00
2023-05-15T16:04:32.485Z,3.70
2023-05-15T16:07:37.641Z,3.50
2023-05-15T16:10:42.727Z,3.25
2023-05-15T16:13:47.844Z,2.97
2023-05-15T16:16:54.461Z,3.90
2023-05-15T16:19:59.499Z,3.50
2023-05-15T16:23:04.467Z,3.33
2023-05-15T16:26:11.409Z,3.50
2023-05-15T16:29:16.809Z,2.92
2023-05-15T16:32:23.284Z,3.10
2023-05-15T16:35:28.516Z,3.17
2023-05-15T16:38:33.590Z,3.85
2023-05-15T16:41:38.550Z,4.90
2023-05-15T16:44:43.581Z,4.05
2023-05-15T16:47:49.906Z,4.30
2023-05-15T16:50:55.009Z,4.10
2023-05-15T16:54:00.136Z,4.85
2023-05-15T16:57:06.418Z,4.43
2023-05-15T17:00:15.425Z,4.10
2023-05-15T17:03:21.792Z,3.67
2023-05-15T17:06:26.941Z,3.70
2023-05-15T17:09:32.834Z,3.80
2023-05-15T17:12:38.026Z,3.67
2023-05-15T17:15:43.208Z,4.20
2023-05-15T17:18:49.567Z,3.88
2023-05-15T17:21:54.660Z,3.83
2023-05-15T17:24:59.735Z,3.90
2023-05-15T17:28:04.786Z,3.70
2023-05-15T17:31:13.172Z,3.80
2023-05-15T17:34:19.678Z,4.10
2023-05-15T17:37:24.711Z,3.50
2023-05-15T17:40:29.829Z,3.55
2023-05-15T17:43:34.928Z,3.83
2023-05-15T17:46:39.978Z,3.47
2023-05-15T17:49:46.361Z,3.65
2023-05-15T17:52:51.451Z,4.10
2023-05-15T17:55:56.572Z,3.67
2023-05-15T17:59:01.711Z,3.83
2023-05-15T18:02:07.466Z,4.35
2023-05-15T18:05:14.978Z,3.90
2023-05-15T18:08:20.078Z,3.15
2023-05-15T18:11:25.216Z,3.60
2023-05-15T18:14:30.251Z,3.80
2023-05-15T18:17:35.332Z,4.35
2023-05-15T18:20:41.862Z,4.50
2023-05-15T18:23:47.243Z,4.60
2023-05-15T18:26:52.232Z,4.25
2023-05-15T18:29:57.105Z,4.20
2023-05-15T18:33:02.411Z,4.03
2023-05-15T18:36:09.704Z,4.30
2023-05-15T18:39:16.713Z,4.00
2023-05-15T18:42:22.136Z,4.40
2023-05-15T18:45:27.674Z,4.35
2023-05-15T18:48:33.001Z,4.60
2023-05-15T18:51:39.336Z,4.38
2023-05-15T18:54:44.321Z,4.80
2023-05-15T18:57:49.384Z,4.22
2023-05-15T19:00:56.423Z,4.28
2023-05-15T19:04:01.557Z,4.40
2023-05-15T19:07:08.856Z,4.07
2023-05-15T19:10:14.221Z,4.47
2023-05-15T19:13:19.384Z,4.28
2023-05-15T19:16:28.561Z,4.82
2023-05-15T19:19:34.967Z,4.60
2023-05-15T19:22:41.760Z,3.78
2023-05-15T19:25:46.917Z,4.53
2023-05-15T19:28:52.995Z,3.85
2023-05-15T19:31:58.166Z,3.88
2023-05-15T19:35:03.676Z,3.95
2023-05-15T19:38:10.234Z,4.18
2023-05-15T19:41:15.698Z,4.30
2023-05-15T19:44:20.622Z,4.78
2023-05-15T19:47:26.846Z,4.43
2023-05-15T19:50:33.321Z,4.70
2023-05-15T19:53:39.890Z,4.90
2023-05-15T19:56:44.992Z,4.82
2023-05-15T19:59:49.905Z,4.72
2023-05-15T20:02:55.154Z,4.43
2023-05-15T20:06:00.917Z,4.50
2023-05-15T20:09:07.350Z,4.70
2023-05-15T20:12:14.633Z,4.38
2023-05-15T20:15:19.833Z,4.63
2023-05-15T20:18:25.287Z,4.30
2023-05-15T20:21:31.476Z,4.85
2023-05-15T20:24:38.734Z,4.60
2023-05-15T20:27:43.766Z,4.50
2023-05-15T20:30:48.822Z,4.60
2023-05-15T20:33:53.899Z,4.50
2023-05-15T20:36:59.404Z,4.72
2023-05-15T20:40:08.114Z,4.68
2023-05-15T20:43:15.076Z,5.03
2023-05-15T20:46:20.229Z,4.85
2023-05-15T20:49:25.321Z,5.63
2023-05-15T20:52:30.678Z,4.50
2023-05-15T20:55:37.487Z,5.40
2023-05-15T20:58:42.631Z,7.28
2023-05-15T21:01:47.672Z,6.90
2023-05-15T21:04:52.630Z,6.65
2023-05-15T21:07:57.850Z,6.18
2023-05-15T21:11:05.635Z,5.15
2023-05-15T21:14:10.785Z,5.75
2023-05-15T21:17:16.013Z,5.70
2023-05-15T21:20:21.322Z,5.28
2023-05-15T21:23:26.297Z,4.97
2023-05-15T21:26:33.270Z,5.50
2023-05-15T21:29:38.291Z,5.38
2023-05-15T21:32:43.375Z,9.23
2023-05-15T21:35:48.821Z,7.07
2023-05-15T21:38:54.250Z,6.40
2023-05-15T21:42:00.576Z,5.45
2023-05-15T21:45:07.053Z,5.60
2023-05-15T21:48:14.158Z,5.35
2023-05-15T21:51:19.196Z,5.32
2023-05-15T21:54:24.148Z,4.85
2023-05-15T21:57:30.704Z,5.13
2023-05-15T22:00:35.738Z,4.95
2023-05-15T22:03:41.264Z,5.18
2023-05-15T22:06:46.498Z,5.07
2023-05-15T22:09:53.241Z,5.63
2023-05-15T22:13:02.667Z,5.50
2023-05-15T22:16:09.597Z,5.03
2023-05-15T22:19:31.695Z,5.15
2023-05-15T22:22:38.423Z,5.80
2023-05-15T22:25:43.834Z,5.25
2023-05-15T22:28:52.753Z,5.18
2023-05-15T22:31:58.216Z,5.18
2023-05-15T22:35:03.816Z,5.53
2023-05-15T22:38:08.852Z,5.05
2023-05-15T22:41:14.644Z,5.10
2023-05-15T22:44:20.964Z,5.57
2023-05-15T22:47:26.397Z,5.30
2023-05-15T22:50:32.007Z,5.28
2023-05-15T22:53:37.506Z,5.28
2023-05-15T22:56:44.653Z,5.20
2023-05-15T22:59:53.396Z,5.60
2023-05-15T23:02:58.438Z,5.38
2023-05-15T23:06:10.130Z,5.35
2023-05-15T23:09:15.825Z,5.38
2023-05-15T23:12:21.505Z,5.57
2023-05-15T23:15:28.240Z,5.82
2023-05-15T23:18:33.340Z,5.90
2023-05-15T23:21:39.020Z,5.53
2023-05-15T23:24:44.022Z,5.53
2023-05-15T23:27:49.117Z,5.32
2023-05-15T23:30:56.000Z,5.70
2023-05-15T23:34:01.083Z,5.47
2023-05-15T23:37:06.390Z,6.20
2023-05-15T23:40:14.223Z,6.40
2023-05-15T23:43:19.463Z,5.55
2023-05-15T23:46:26.288Z,5.45
2023-05-15T23:49:32.935Z,5.72
2023-05-15T23:52:38.171Z,5.70
2023-05-15T23:55:43.217Z,5.50
2023-05-15T23:58:48.266Z,5.40
